sensor_id;sensor_type;location;lat;lon;timestamp;P1;durP1;ratioP1;P2;durP2;ratioP2
30872;SDS011;17579;42.690;2.586;2023-02-28T00:01:30;3.47;;;3.17;;
30872;SDS011;17579;42.690;2.586;2023-02-28T00:03:55;3.72;;;3.30;;
30872;SDS011;17579;42.690;2.586;2023-02-28T00:06:21;5.82;;;3.22;;
30872;SDS011;17579;42.690;2.586;2023-02-28T00:08:47;3.20;;;2.90;;
30872;SDS011;17579;42.690;2.586;2023-02-28T00:11:13;3.50;;;2.80;;
30872;SDS011;17579;42.690;2.586;2023-02-28T00:13:40;3.30;;;2.97;;
30872;SDS011;17579;42.690;2.586;2023-02-28T00:16:10;3.65;;;2.88;;
30872;SDS011;17579;42.690;2.586;2023-02-28T00:18:38;3.83;;;3.20;;
30872;SDS011;17579;42.690;2.586;2023-02-28T00:21:04;3.28;;;2.97;;
30872;SDS011;17579;42.690;2.586;2023-02-28T00:23:31;4.05;;;3.33;;
30872;SDS011;17579;42.690;2.586;2023-02-28T00:25:56;3.58;;;3.20;;
30872;SDS011;17579;42.690;2.586;2023-02-28T00:28:22;5.50;;;3.13;;
30872;SDS011;17579;42.690;2.586;2023-02-28T00:30:48;3.22;;;2.88;;
30872;SDS011;17579;42.690;2.586;2023-02-28T00:33:14;3.50;;;3.20;;
30872;SDS011;17579;42.690;2.586;2023-02-28T00:35:39;4.95;;;3.30;;
30872;SDS011;17579;42.690;2.586;2023-02-28T00:38:05;4.90;;;3.58;;
30872;SDS011;17579;42.690;2.586;2023-02-28T00:40:31;4.00;;;3.22;;
30872;SDS011;17579;42.690;2.586;2023-02-28T00:42:56;3.85;;;2.97;;
30872;SDS011;17579;42.690;2.586;2023-02-28T00:45:22;4.00;;;3.10;;
30872;SDS011;17579;42.690;2.586;2023-02-28T00:47:48;3.80;;;3.33;;
30872;SDS011;17579;42.690;2.586;2023-02-28T00:50:17;5.50;;;3.30;;
30872;SDS011;17579;42.690;2.586;2023-02-28T00:52:43;3.35;;;3.05;;
30872;SDS011;17579;42.690;2.586;2023-02-28T00:55:09;3.28;;;2.97;;
30872;SDS011;17579;42.690;2.586;2023-02-28T00:57:34;5.18;;;3.30;;
30872;SDS011;17579;42.690;2.586;2023-02-28T01:00:00;3.35;;;3.05;;
30872;SDS011;17579;42.690;2.586;2023-02-28T01:02:26;3.97;;;2.83;;
30872;SDS011;17579;42.690;2.586;2023-02-28T01:04:52;5.03;;;3.10;;
30872;SDS011;17579;42.690;2.586;2023-02-28T01:07:17;4.50;;;3.47;;
30872;SDS011;17579;42.690;2.586;2023-02-28T01:09:43;4.18;;;3.20;;
30872;SDS011;17579;42.690;2.586;2023-02-28T01:12:08;4.70;;;2.78;;
30872;SDS011;17579;42.690;2.586;2023-02-28T01:14:34;5.53;;;3.00;;
30872;SDS011;17579;42.690;2.586;2023-02-28T01:17:00;3.65;;;3.33;;
30872;SDS011;17579;42.690;2.586;2023-02-28T01:19:26;3.67;;;3.08;;
30872;SDS011;17579;42.690;2.586;2023-02-28T01:21:52;3.47;;;2.90;;
30872;SDS011;17579;42.690;2.586;2023-02-28T01:24:17;4.72;;;3.10;;
30872;SDS011;17579;42.690;2.586;2023-02-28T01:26:43;3.70;;;3.08;;
30872;SDS011;17579;42.690;2.586;2023-02-28T01:29:09;3.38;;;3.00;;
30872;SDS011;17579;42.690;2.586;2023-02-28T01:31:34;3.92;;;3.22;;
30872;SDS011;17579;42.690;2.586;2023-02-28T01:34:00;4.15;;;3.40;;
30872;SDS011;17579;42.690;2.586;2023-02-28T01:36:26;3.08;;;2.65;;
30872;SDS011;17579;42.690;2.586;2023-02-28T01:38:52;3.38;;;3.08;;
30872;SDS011;17579;42.690;2.586;2023-02-28T01:41:19;4.85;;;3.25;;
30872;SDS011;17579;42.690;2.586;2023-02-28T01:46:18;3.53;;;3.22;;
30872;SDS011;17579;42.690;2.586;2023-02-28T01:48:45;3.67;;;3.00;;
30872;SDS011;17579;42.690;2.586;2023-02-28T01:51:18;3.42;;;3.13;;
30872;SDS011;17579;42.690;2.586;2023-02-28T01:53:48;3.88;;;3.42;;
30872;SDS011;17579;42.690;2.586;2023-02-28T01:56:18;4.03;;;3.08;;
30872;SDS011;17579;42.690;2.586;2023-02-28T01:58:51;3.50;;;3.20;;
30872;SDS011;17579;42.690;2.586;2023-02-28T02:01:19;4.43;;;3.17;;
30872;SDS011;17579;42.690;2.586;2023-02-28T02:03:48;3.97;;;3.10;;
30872;SDS011;17579;42.690;2.586;2023-02-28T02:06:24;4.20;;;3.28;;
30872;SDS011;17579;42.690;2.586;2023-02-28T02:08:53;4.63;;;3.53;;
30872;SDS011;17579;42.690;2.586;2023-02-28T02:11:19;5.70;;;3.50;;
30872;SDS011;17579;42.690;2.586;2023-02-28T02:16:49;3.97;;;3.58;;
30872;SDS011;17579;42.690;2.586;2023-02-28T02:19:32;3.53;;;3.20;;
30872;SDS011;17579;42.690;2.586;2023-02-28T02:22:07;3.90;;;3.10;;
30872;SDS011;17579;42.690;2.586;2023-02-28T02:30:21;4.60;;;2.90;;
30872;SDS011;17579;42.690;2.586;2023-02-28T02:36:19;3.35;;;3.03;;
30872;SDS011;17579;42.690;2.586;2023-02-28T02:38:52;3.63;;;3.30;;
30872;SDS011;17579;42.690;2.586;2023-02-28T02:41:27;3.25;;;2.95;;
30872;SDS011;17579;42.690;2.586;2023-02-28T02:44:02;3.20;;;2.90;;
30872;SDS011;17579;42.690;2.586;2023-02-28T02:46:37;3.78;;;3.47;;
30872;SDS011;17579;42.690;2.586;2023-02-28T02:49:08;3.53;;;3.22;;
30872;SDS011;17579;42.690;2.586;2023-02-28T02:51:38;3.80;;;3.50;;
30872;SDS011;17579;42.690;2.586;2023-02-28T02:54:09;3.88;;;3.38;;
30872;SDS011;17579;42.690;2.586;2023-02-28T02:56:41;4.20;;;3.80;;
30872;SDS011;17579;42.690;2.586;2023-02-28T02:59:11;3.30;;;3.00;;
30872;SDS011;17579;42.690;2.586;2023-02-28T03:01:40;4.82;;;3.33;;
30872;SDS011;17579;42.690;2.586;2023-02-28T03:04:09;12.18;;;3.50;;
30872;SDS011;17579;42.690;2.586;2023-02-28T03:06:37;3.38;;;3.05;;
30872;SDS011;17579;42.690;2.586;2023-02-28T03:09:03;4.65;;;3.53;;
30872;SDS011;17579;42.690;2.586;2023-02-28T03:11:30;3.88;;;3.42;;
30872;SDS011;17579;42.690;2.586;2023-02-28T03:22:28;5.40;;;3.30;;
30872;SDS011;17579;42.690;2.586;2023-02-28T03:27:48;3.30;;;3.00;;
30872;SDS011;17579;42.690;2.586;2023-02-28T03:30:35;5.90;;;3.92;;
30872;SDS011;17579;42.690;2.586;2023-02-28T03:33:08;3.65;;;3.35;;
30872;SDS011;17579;42.690;2.586;2023-02-28T03:35:40;4.30;;;3.72;;
30872;SDS011;17579;42.690;2.586;2023-02-28T03:38:12;3.75;;;3.15;;
30872;SDS011;17579;42.690;2.586;2023-02-28T03:41:01;3.42;;;3.13;;
30872;SDS011;17579;42.690;2.586;2023-02-28T03:43:32;3.63;;;3.30;;
30872;SDS011;17579;42.690;2.586;2023-02-28T03:46:01;3.42;;;3.15;;
30872;SDS011;17579;42.690;2.586;2023-02-28T03:48:37;3.75;;;3.40;;
30872;SDS011;17579;42.690;2.586;2023-02-28T03:51:09;3.97;;;3.17;;
30872;SDS011;17579;42.690;2.586;2023-02-28T03:53:39;3.83;;;3.53;;
30872;SDS011;17579;42.690;2.586;2023-02-28T03:56:15;4.20;;;3.30;;
30872;SDS011;17579;42.690;2.586;2023-02-28T03:58:46;7.07;;;3.83;;
30872;SDS011;17579;42.690;2.586;2023-02-28T04:03:45;5.45;;;4.05;;
30872;SDS011;17579;42.690;2.586;2023-02-28T04:08:37;4.18;;;3.42;;
30872;SDS011;17579;42.690;2.586;2023-02-28T04:11:06;3.83;;;3.45;;
30872;SDS011;17579;42.690;2.586;2023-02-28T04:13:34;4.10;;;3.70;;
30872;SDS011;17579;42.690;2.586;2023-02-28T04:16:00;3.70;;;3.22;;
30872;SDS011;17579;42.690;2.586;2023-02-28T04:18:26;4.25;;;3.85;;
30872;SDS011;17579;42.690;2.586;2023-02-28T04:20:51;4.00;;;3.60;;
30872;SDS011;17579;42.690;2.586;2023-02-28T04:23:17;5.22;;;3.95;;
30872;SDS011;17579;42.690;2.586;2023-02-28T04:25:42;4.47;;;3.70;;
30872;SDS011;17579;42.690;2.586;2023-02-28T04:28:08;4.93;;;3.85;;
30872;SDS011;17579;42.690;2.586;2023-02-28T04:30:34;4.10;;;3.67;;
30872;SDS011;17579;42.690;2.586;2023-02-28T04:33:01;4.20;;;3.67;;
30872;SDS011;17579;42.690;2.586;2023-02-28T04:35:26;4.15;;;3.60;;
30872;SDS011;17579;42.690;2.586;2023-02-28T04:37:52;4.22;;;3.83;;
30872;SDS011;17579;42.690;2.586;2023-02-28T04:40:17;4.47;;;4.07;;
30872;SDS011;17579;42.690;2.586;2023-02-28T04:42:43;4.57;;;3.72;;
30872;SDS011;17579;42.690;2.586;2023-02-28T04:45:09;3.72;;;3.42;;
30872;SDS011;17579;42.690;2.586;2023-02-28T04:47:35;3.95;;;3.58;;
30872;SDS011;17579;42.690;2.586;2023-02-28T04:50:01;4.13;;;3.70;;
30872;SDS011;17579;42.690;2.586;2023-02-28T04:52:28;3.72;;;3.42;;
30872;SDS011;17579;42.690;2.586;2023-02-28T04:54:54;5.45;;;4.18;;
30872;SDS011;17579;42.690;2.586;2023-02-28T04:57:20;4.28;;;3.88;;
30872;SDS011;17579;42.690;2.586;2023-02-28T04:59:45;4.63;;;3.60;;
30872;SDS011;17579;42.690;2.586;2023-02-28T05:02:11;4.40;;;3.95;;
30872;SDS011;17579;42.690;2.586;2023-02-28T05:04:37;4.95;;;3.90;;
30872;SDS011;17579;42.690;2.586;2023-02-28T05:07:02;5.30;;;4.25;;
30872;SDS011;17579;42.690;2.586;2023-02-28T05:09:28;5.05;;;3.90;;
30872;SDS011;17579;42.690;2.586;2023-02-28T05:11:54;4.82;;;3.40;;
30872;SDS011;17579;42.690;2.586;2023-02-28T05:14:20;4.10;;;3.60;;
30872;SDS011;17579;42.690;2.586;2023-02-28T05:16:46;4.50;;;4.10;;
30872;SDS011;17579;42.690;2.586;2023-02-28T05:19:12;6.93;;;4.10;;
30872;SDS011;17579;42.690;2.586;2023-02-28T05:21:38;4.18;;;3.78;;
30872;SDS011;17579;42.690;2.586;2023-02-28T05:24:07;4.47;;;4.00;;
30872;SDS011;17579;42.690;2.586;2023-02-28T05:26:36;5.05;;;4.20;;
30872;SDS011;17579;42.690;2.586;2023-02-28T05:29:04;5.03;;;4.53;;
30872;SDS011;17579;42.690;2.586;2023-02-28T05:31:30;4.65;;;4.03;;
30872;SDS011;17579;42.690;2.586;2023-02-28T05:33:56;4.60;;;4.13;;
30872;SDS011;17579;42.690;2.586;2023-02-28T05:36:21;5.03;;;4.53;;
30872;SDS011;17579;42.690;2.586;2023-02-28T05:38:47;6.10;;;4.20;;
30872;SDS011;17579;42.690;2.586;2023-02-28T05:41:14;4.00;;;3.58;;
30872;SDS011;17579;42.690;2.586;2023-02-28T05:43:40;5.13;;;3.72;;
30872;SDS011;17579;42.690;2.586;2023-02-28T05:46:07;5.72;;;4.00;;
30872;SDS011;17579;42.690;2.586;2023-02-28T05:48:34;4.32;;;3.92;;
30872;SDS011;17579;42.690;2.586;2023-02-28T05:51:01;4.63;;;4.18;;
30872;SDS011;17579;42.690;2.586;2023-02-28T05:53:28;4.95;;;4.20;;
30872;SDS011;17579;42.690;2.586;2023-02-28T05:55:53;4.40;;;4.00;;
30872;SDS011;17579;42.690;2.586;2023-02-28T05:58:19;5.65;;;3.95;;
30872;SDS011;17579;42.690;2.586;2023-02-28T06:00:45;4.45;;;4.05;;
30872;SDS011;17579;42.690;2.586;2023-02-28T06:03:10;4.20;;;3.78;;
30872;SDS011;17579;42.690;2.586;2023-02-28T06:05:36;5.30;;;3.60;;
30872;SDS011;17579;42.690;2.586;2023-02-28T06:08:05;5.00;;;4.20;;
30872;SDS011;17579;42.690;2.586;2023-02-28T06:10:32;4.18;;;3.78;;
30872;SDS011;17579;42.690;2.586;2023-02-28T06:12:59;4.22;;;3.80;;
30872;SDS011;17579;42.690;2.586;2023-02-28T06:15:27;3.75;;;3.28;;
30872;SDS011;17579;42.690;2.586;2023-02-28T06:17:53;4.57;;;4.18;;
30872;SDS011;17579;42.690;2.586;2023-02-28T06:20:21;5.15;;;3.90;;
30872;SDS011;17579;42.690;2.586;2023-02-28T06:22:48;4.15;;;3.65;;
30872;SDS011;17579;42.690;2.586;2023-02-28T06:25:15;4.10;;;3.70;;
30872;SDS011;17579;42.690;2.586;2023-02-28T06:27:41;5.10;;;4.30;;
30872;SDS011;17579;42.690;2.586;2023-02-28T06:30:06;4.60;;;3.72;;
30872;SDS011;17579;42.690;2.586;2023-02-28T06:32:33;5.13;;;4.22;;
30872;SDS011;17579;42.690;2.586;2023-02-28T06:34:58;4.43;;;3.65;;
30872;SDS011;17579;42.690;2.586;2023-02-28T06:37:24;6.28;;;4.40;;
30872;SDS011;17579;42.690;2.586;2023-02-28T06:39:51;3.83;;;3.42;;
30872;SDS011;17579;42.690;2.586;2023-02-28T06:42:17;5.70;;;3.80;;
30872;SDS011;17579;42.690;2.586;2023-02-28T06:44:43;6.85;;;4.10;;
30872;SDS011;17579;42.690;2.586;2023-02-28T06:47:08;4.97;;;4.07;;
30872;SDS011;17579;42.690;2.586;2023-02-28T06:49:34;4.90;;;4.35;;
30872;SDS011;17579;42.690;2.586;2023-02-28T06:52:01;7.40;;;4.20;;
30872;SDS011;17579;42.690;2.586;2023-02-28T06:54:27;4.18;;;3.78;;
30872;SDS011;17579;42.690;2.586;2023-02-28T06:56:52;4.32;;;3.92;;
30872;SDS011;17579;42.690;2.586;2023-02-28T06:59:19;4.88;;;4.05;;
30872;SDS011;17579;42.690;2.586;2023-02-28T07:01:45;3.92;;;3.63;;
30872;SDS011;17579;42.690;2.586;2023-02-28T07:04:11;5.43;;;4.28;;
30872;SDS011;17579;42.690;2.586;2023-02-28T07:06:38;5.10;;;4.60;;
30872;SDS011;17579;42.690;2.586;2023-02-28T07:09:03;4.88;;;4.25;;
30872;SDS011;17579;42.690;2.586;2023-02-28T07:11:29;4.82;;;4.05;;
30872;SDS011;17579;42.690;2.586;2023-02-28T07:13:55;5.13;;;4.00;;
30872;SDS011;17579;42.690;2.586;2023-02-28T07:16:22;8.20;;;4.43;;
30872;SDS011;17579;42.690;2.586;2023-02-28T07:18:49;5.25;;;3.83;;
30872;SDS011;17579;42.690;2.586;2023-02-28T07:21:17;4.78;;;4.32;;
30872;SDS011;17579;42.690;2.586;2023-02-28T07:23:42;4.53;;;3.92;;
30872;SDS011;17579;42.690;2.586;2023-02-28T07:26:11;4.15;;;3.75;;
30872;SDS011;17579;42.690;2.586;2023-02-28T07:28:39;4.57;;;4.18;;
30872;SDS011;17579;42.690;2.586;2023-02-28T07:31:08;4.15;;;3.75;;
30872;SDS011;17579;42.690;2.586;2023-02-28T07:33:34;4.68;;;4.28;;
30872;SDS011;17579;42.690;2.586;2023-02-28T07:36:01;4.15;;;3.58;;
30872;SDS011;17579;42.690;2.586;2023-02-28T07:38:29;5.38;;;3.75;;
30872;SDS011;17579;42.690;2.586;2023-02-28T07:40:54;4.65;;;3.70;;
30872;SDS011;17579;42.690;2.586;2023-02-28T07:43:20;4.63;;;4.15;;
30872;SDS011;17579;42.690;2.586;2023-02-28T07:45:46;5.07;;;4.15;;
30872;SDS011;17579;42.690;2.586;2023-02-28T07:48:11;4.22;;;3.78;;
30872;SDS011;17579;42.690;2.586;2023-02-28T07:50:37;5.32;;;3.90;;
30872;SDS011;17579;42.690;2.586;2023-02-28T07:53:02;3.97;;;3.58;;
30872;SDS011;17579;42.690;2.586;2023-02-28T07:55:29;5.35;;;4.28;;
30872;SDS011;17579;42.690;2.586;2023-02-28T07:57:56;4.95;;;4.13;;
30872;SDS011;17579;42.690;2.586;2023-02-28T08:00:22;4.18;;;3.72;;
30872;SDS011;17579;42.690;2.586;2023-02-28T08:02:48;4.07;;;3.67;;
30872;SDS011;17579;42.690;2.586;2023-02-28T08:05:14;4.43;;;4.03;;
30872;SDS011;17579;42.690;2.586;2023-02-28T08:07:40;4.97;;;3.78;;
30872;SDS011;17579;42.690;2.586;2023-02-28T08:10:05;4.47;;;3.72;;
30872;SDS011;17579;42.690;2.586;2023-02-28T08:12:32;4.10;;;3.67;;
30872;SDS011;17579;42.690;2.586;2023-02-28T08:14:57;4.72;;;4.05;;
30872;SDS011;17579;42.690;2.586;2023-02-28T08:17:23;4.30;;;3.90;;
30872;SDS011;17579;42.690;2.586;2023-02-28T08:19:48;4.43;;;4.03;;
30872;SDS011;17579;42.690;2.586;2023-02-28T08:22:14;4.53;;;3.88;;
30872;SDS011;17579;42.690;2.586;2023-02-28T08:24:41;5.88;;;4.30;;
30872;SDS011;17579;42.690;2.586;2023-02-28T08:27:08;4.47;;;3.78;;
30872;SDS011;17579;42.690;2.586;2023-02-28T08:29:33;10.23;;;3.88;;
30872;SDS011;17579;42.690;2.586;2023-02-28T08:32:02;4.00;;;3.60;;
30872;SDS011;17579;42.690;2.586;2023-02-28T08:34:27;4.70;;;3.67;;
30872;SDS011;17579;42.690;2.586;2023-02-28T08:36:53;4.30;;;3.90;;
30872;SDS011;17579;42.690;2.586;2023-02-28T08:39:18;5.43;;;3.70;;
30872;SDS011;17579;42.690;2.586;2023-02-28T08:41:45;4.00;;;3.42;;
30872;SDS011;17579;42.690;2.586;2023-02-28T08:44:10;3.90;;;3.50;;
30872;SDS011;17579;42.690;2.586;2023-02-28T08:46:36;4.18;;;3.72;;
30872;SDS011;17579;42.690;2.586;2023-02-28T08:49:03;5.22;;;3.78;;
30872;SDS011;17579;42.690;2.586;2023-02-28T08:51:29;4.00;;;3.22;;
30872;SDS011;17579;42.690;2.586;2023-02-28T08:53:58;4.43;;;3.55;;
30872;SDS011;17579;42.690;2.586;2023-02-28T08:56:25;4.25;;;3.75;;
30872;SDS011;17579;42.690;2.586;2023-02-28T08:58:53;5.63;;;3.72;;
30872;SDS011;17579;42.690;2.586;2023-02-28T09:01:22;3.60;;;3.25;;
30872;SDS011;17579;42.690;2.586;2023-02-28T09:03:49;4.60;;;3.70;;
30872;SDS011;17579;42.690;2.586;2023-02-28T09:06:17;4.15;;;3.72;;
30872;SDS011;17579;42.690;2.586;2023-02-28T09:08:43;3.50;;;3.20;;
30872;SDS011;17579;42.690;2.586;2023-02-28T09:11:10;3.20;;;2.90;;
30872;SDS011;17579;42.690;2.586;2023-02-28T09:13:36;3.50;;;3.20;;
30872;SDS011;17579;42.690;2.586;2023-02-28T09:16:03;3.08;;;2.83;;
30872;SDS011;17579;42.690;2.586;2023-02-28T09:18:31;4.25;;;3.33;;
30872;SDS011;17579;42.690;2.586;2023-02-28T09:20:56;4.13;;;3.67;;
30872;SDS011;17579;42.690;2.586;2023-02-28T09:23:22;4.00;;;3.50;;
30872;SDS011;17579;42.690;2.586;2023-02-28T09:25:51;3.92;;;3.50;;
30872;SDS011;17579;42.690;2.586;2023-02-28T09:28:18;3.83;;;3.25;;
30872;SDS011;17579;42.690;2.586;2023-02-28T09:30:44;4.53;;;3.15;;
30872;SDS011;17579;42.690;2.586;2023-02-28T09:33:12;3.30;;;2.80;;
30872;SDS011;17579;42.690;2.586;2023-02-28T09:35:38;3.17;;;2.75;;
30872;SDS011;17579;42.690;2.586;2023-02-28T09:38:04;4.20;;;3.45;;
30872;SDS011;17579;42.690;2.586;2023-02-28T09:40:30;3.45;;;3.15;;
30872;SDS011;17579;42.690;2.586;2023-02-28T09:42:56;3.28;;;2.97;;
30872;SDS011;17579;42.690;2.586;2023-02-28T09:45:27;3.70;;;3.35;;
30872;SDS011;17579;42.690;2.586;2023-02-28T09:47:59;4.50;;;3.25;;
30872;SDS011;17579;42.690;2.586;2023-02-28T09:50:41;3.83;;;3.40;;
30872;SDS011;17579;42.690;2.586;2023-02-28T09:53:15;4.40;;;3.05;;
30872;SDS011;17579;42.690;2.586;2023-02-28T09:55:53;2.65;;;2.45;;
30872;SDS011;17579;42.690;2.586;2023-02-28T09:58:26;3.30;;;3.00;;
30872;SDS011;17579;42.690;2.586;2023-02-28T10:01:00;4.18;;;3.13;;
30872;SDS011;17579;42.690;2.586;2023-02-28T10:03:36;3.38;;;3.08;;
30872;SDS011;17579;42.690;2.586;2023-02-28T10:06:07;3.08;;;2.78;;
30872;SDS011;17579;42.690;2.586;2023-02-28T10:11:40;4.22;;;3.17;;
30872;SDS011;17579;42.690;2.586;2023-02-28T10:14:12;3.55;;;3.25;;
30872;SDS011;17579;42.690;2.586;2023-02-28T10:16:43;3.15;;;2.80;;
30872;SDS011;17579;42.690;2.586;2023-02-28T10:19:20;3.28;;;2.97;;
30872;SDS011;17579;42.690;2.586;2023-02-28T10:21:59;3.53;;;3.22;;
30872;SDS011;17579;42.690;2.586;2023-02-28T10:24:30;3.08;;;2.80;;
30872;SDS011;17579;42.690;2.586;2023-02-28T10:27:01;3.58;;;3.00;;
30872;SDS011;17579;42.690;2.586;2023-02-28T10:29:47;3.65;;;3.30;;
30872;SDS011;17579;42.690;2.586;2023-02-28T10:32:16;3.10;;;2.80;;
30872;SDS011;17579;42.690;2.586;2023-02-28T10:34:44;3.25;;;2.95;;
30872;SDS011;17579;42.690;2.586;2023-02-28T10:37:15;3.85;;;3.15;;
30872;SDS011;17579;42.690;2.586;2023-02-28T10:39:44;3.30;;;2.88;;
30872;SDS011;17579;42.690;2.586;2023-02-28T10:44:38;3.03;;;2.72;;
30872;SDS011;17579;42.690;2.586;2023-02-28T10:47:03;3.33;;;2.72;;
30872;SDS011;17579;42.690;2.586;2023-02-28T10:49:29;3.47;;;2.72;;
30872;SDS011;17579;42.690;2.586;2023-02-28T10:51:56;3.15;;;2.83;;
30872;SDS011;17579;42.690;2.586;2023-02-28T10:54:26;3.13;;;2.78;;
30872;SDS011;17579;42.690;2.586;2023-02-28T11:01:52;2.97;;;2.58;;
30872;SDS011;17579;42.690;2.586;2023-02-28T11:04:19;2.83;;;2.53;;
30872;SDS011;17579;42.690;2.586;2023-02-28T11:06:46;2.50;;;2.30;;
30872;SDS011;17579;42.690;2.586;2023-02-28T11:09:23;4.50;;;2.92;;
30872;SDS011;17579;42.690;2.586;2023-02-28T11:11:54;3.13;;;2.78;;
30872;SDS011;17579;42.690;2.586;2023-02-28T11:14:21;3.08;;;2.55;;
30872;SDS011;17579;42.690;2.586;2023-02-28T11:16:49;3.60;;;2.35;;
30872;SDS011;17579;42.690;2.586;2023-02-28T11:19:18;3.45;;;2.63;;
30872;SDS011;17579;42.690;2.586;2023-02-28T11:21:52;3.42;;;2.40;;
30872;SDS011;17579;42.690;2.586;2023-02-28T11:24:33;3.35;;;2.90;;
30872;SDS011;17579;42.690;2.586;2023-02-28T11:27:05;2.88;;;2.60;;
30872;SDS011;17579;42.690;2.586;2023-02-28T11:29:31;2.85;;;2.55;;
30872;SDS011;17579;42.690;2.586;2023-02-28T11:34:25;3.55;;;2.88;;
30872;SDS011;17579;42.690;2.586;2023-02-28T11:36:53;2.58;;;2.38;;
30872;SDS011;17579;42.690;2.586;2023-02-28T11:39:22;2.58;;;2.35;;
30872;SDS011;17579;42.690;2.586;2023-02-28T11:47:04;2.70;;;2.50;;
30872;SDS011;17579;42.690;2.586;2023-02-28T11:49:42;3.20;;;2.35;;
30872;SDS011;17579;42.690;2.586;2023-02-28T11:55:19;2.47;;;2.28;;
30872;SDS011;17579;42.690;2.586;2023-02-28T12:03:51;3.13;;;2.38;;
30872;SDS011;17579;42.690;2.586;2023-02-28T12:06:25;2.85;;;2.65;;
30872;SDS011;17579;42.690;2.586;2023-02-28T12:22:22;2.53;;;2.30;;
30872;SDS011;17579;42.690;2.586;2023-02-28T12:25:19;2.85;;;2.03;;
30872;SDS011;17579;42.690;2.586;2023-02-28T12:27:55;2.55;;;2.30;;
30872;SDS011;17579;42.690;2.586;2023-02-28T12:30:22;2.15;;;1.95;;
30872;SDS011;17579;42.690;2.586;2023-02-28T12:32:53;2.08;;;1.88;;
30872;SDS011;17579;42.690;2.586;2023-02-28T12:35:26;2.30;;;2.10;;
30872;SDS011;17579;42.690;2.586;2023-02-28T12:38:01;3.40;;;2.20;;
30872;SDS011;17579;42.690;2.586;2023-02-28T12:43:06;2.15;;;1.90;;
30872;SDS011;17579;42.690;2.586;2023-02-28T12:48:04;2.15;;;1.90;;
30872;SDS011;17579;42.690;2.586;2023-02-28T12:50:33;1.98;;;1.88;;
30872;SDS011;17579;42.690;2.586;2023-02-28T12:55:55;2.03;;;1.83;;
30872;SDS011;17579;42.690;2.586;2023-02-28T12:58:47;2.20;;;2.00;;
30872;SDS011;17579;42.690;2.586;2023-02-28T13:01:36;1.80;;;1.70;;
30872;SDS011;17579;42.690;2.586;2023-02-28T13:09:57;2.25;;;1.95;;
30872;SDS011;17579;42.690;2.586;2023-02-28T13:12:25;2.03;;;1.83;;
30872;SDS011;17579;42.690;2.586;2023-02-28T13:15:01;2.13;;;1.92;;
30872;SDS011;17579;42.690;2.586;2023-02-28T13:17:34;2.22;;;2.03;;
30872;SDS011;17579;42.690;2.586;2023-02-28T13:20:00;3.60;;;2.03;;
30872;SDS011;17579;42.690;2.586;2023-02-28T13:24:54;3.17;;;2.55;;
30872;SDS011;17579;42.690;2.586;2023-02-28T13:27:24;2.83;;;1.95;;
30872;SDS011;17579;42.690;2.586;2023-02-28T13:29:57;2.63;;;2.25;;
30872;SDS011;17579;42.690;2.586;2023-02-28T13:38:09;2.70;;;2.35;;
30872;SDS011;17579;42.690;2.586;2023-02-28T13:40:40;3.75;;;2.50;;
30872;SDS011;17579;42.690;2.586;2023-02-28T13:43:07;2.33;;;2.08;;
30872;SDS011;17579;42.690;2.586;2023-02-28T13:45:34;2.28;;;2.08;;
30872;SDS011;17579;42.690;2.586;2023-02-28T13:48:12;2.20;;;2.00;;
30872;SDS011;17579;42.690;2.586;2023-02-28T13:50:41;4.35;;;2.47;;
30872;SDS011;17579;42.690;2.586;2023-02-28T13:56:07;3.28;;;2.40;;
30872;SDS011;17579;42.690;2.586;2023-02-28T14:01:14;2.70;;;2.33;;
30872;SDS011;17579;42.690;2.586;2023-02-28T14:04:06;2.20;;;2.00;;
30872;SDS011;17579;42.690;2.586;2023-02-28T14:06:36;3.63;;;2.28;;
30872;SDS011;17579;42.690;2.586;2023-02-28T14:11:50;2.67;;;2.40;;
30872;SDS011;17579;42.690;2.586;2023-02-28T14:16:44;2.78;;;2.15;;
30872;SDS011;17579;42.690;2.586;2023-02-28T14:19:19;2.33;;;2.13;;
30872;SDS011;17579;42.690;2.586;2023-02-28T14:32:35;2.35;;;2.05;;
30872;SDS011;17579;42.690;2.586;2023-02-28T14:38:05;2.40;;;2.20;;
30872;SDS011;17579;42.690;2.586;2023-02-28T14:40:39;3.28;;;2.63;;
30872;SDS011;17579;42.690;2.586;2023-02-28T14:43:06;2.53;;;2.33;;
30872;SDS011;17579;42.690;2.586;2023-02-28T14:45:48;2.97;;;2.65;;
30872;SDS011;17579;42.690;2.586;2023-02-28T14:48:16;3.92;;;2.33;;
30872;SDS011;17579;42.690;2.586;2023-02-28T14:53:15;2.67;;;2.38;;
30872;SDS011;17579;42.690;2.586;2023-02-28T14:55:45;2.80;;;2.40;;
30872;SDS011;17579;42.690;2.586;2023-02-28T14:58:19;2.70;;;2.50;;
30872;SDS011;17579;42.690;2.586;2023-02-28T15:00:48;3.05;;;2.38;;
30872;SDS011;17579;42.690;2.586;2023-02-28T15:05:44;2.80;;;2.60;;
30872;SDS011;17579;42.690;2.586;2023-02-28T15:08:17;2.88;;;2.60;;
30872;SDS011;17579;42.690;2.586;2023-02-28T15:10:49;3.50;;;2.90;;
30872;SDS011;17579;42.690;2.586;2023-02-28T15:13:36;3.08;;;2.80;;
30872;SDS011;17579;42.690;2.586;2023-02-28T15:18:54;3.67;;;3.05;;
30872;SDS011;17579;42.690;2.586;2023-02-28T15:21:31;3.70;;;3.40;;
30872;SDS011;17579;42.690;2.586;2023-02-28T15:26:31;3.42;;;3.13;;
30872;SDS011;17579;42.690;2.586;2023-02-28T15:29:00;4.00;;;3.10;;
30872;SDS011;17579;42.690;2.586;2023-02-28T15:31:33;2.97;;;2.67;;
30872;SDS011;17579;42.690;2.586;2023-02-28T15:34:06;3.75;;;3.17;;
30872;SDS011;17579;42.690;2.586;2023-02-28T15:36:40;3.63;;;3.00;;
30872;SDS011;17579;42.690;2.586;2023-02-28T15:46:27;4.60;;;3.17;;
30872;SDS011;17579;42.690;2.586;2023-02-28T15:48:54;5.75;;;3.20;;
30872;SDS011;17579;42.690;2.586;2023-02-28T15:53:50;3.55;;;3.25;;
30872;SDS011;17579;42.690;2.586;2023-02-28T15:56:23;5.22;;;4.03;;
30872;SDS011;17579;42.690;2.586;2023-02-28T16:01:23;3.42;;;2.97;;
30872;SDS011;17579;42.690;2.586;2023-02-28T16:03:51;4.70;;;3.40;;
30872;SDS011;17579;42.690;2.586;2023-02-28T16:06:22;4.95;;;3.70;;
30872;SDS011;17579;42.690;2.586;2023-02-28T16:08:55;5.03;;;3.33;;
30872;SDS011;17579;42.690;2.586;2023-02-28T16:11:21;3.72;;;3.33;;
30872;SDS011;17579;42.690;2.586;2023-02-28T16:13:47;3.92;;;3.53;;
30872;SDS011;17579;42.690;2.586;2023-02-28T16:16:15;4.15;;;3.40;;
30872;SDS011;17579;42.690;2.586;2023-02-28T16:18:45;5.68;;;3.88;;
30872;SDS011;17579;42.690;2.586;2023-02-28T16:21:11;4.38;;;3.83;;
30872;SDS011;17579;42.690;2.586;2023-02-28T16:23:36;5.95;;;4.00;;
30872;SDS011;17579;42.690;2.586;2023-02-28T16:26:03;4.53;;;3.90;;
30872;SDS011;17579;42.690;2.586;2023-02-28T16:28:31;4.78;;;3.63;;
30872;SDS011;17579;42.690;2.586;2023-02-28T16:30:59;4.25;;;3.25;;
30872;SDS011;17579;42.690;2.586;2023-02-28T16:33:28;3.83;;;3.50;;
30872;SDS011;17579;42.690;2.586;2023-02-28T16:35:54;4.18;;;3.58;;
30872;SDS011;17579;42.690;2.586;2023-02-28T16:38:20;4.63;;;4.10;;
30872;SDS011;17579;42.690;2.586;2023-02-28T16:40:49;3.88;;;3.58;;
30872;SDS011;17579;42.690;2.586;2023-02-28T16:43:17;4.25;;;3.85;;
30872;SDS011;17579;42.690;2.586;2023-02-28T16:45:46;4.47;;;3.60;;
30872;SDS011;17579;42.690;2.586;2023-02-28T16:48:13;7.18;;;4.03;;
30872;SDS011;17579;42.690;2.586;2023-02-28T16:50:40;4.63;;;3.40;;
30872;SDS011;17579;42.690;2.586;2023-02-28T16:53:07;5.32;;;3.70;;
30872;SDS011;17579;42.690;2.586;2023-02-28T16:55:33;4.72;;;4.32;;
30872;SDS011;17579;42.690;2.586;2023-02-28T16:58:00;4.32;;;3.75;;
30872;SDS011;17579;42.690;2.586;2023-02-28T17:00:27;4.07;;;3.67;;
30872;SDS011;17579;42.690;2.586;2023-02-28T17:02:54;4.80;;;4.13;;
30872;SDS011;17579;42.690;2.586;2023-02-28T17:05:20;5.70;;;3.97;;
30872;SDS011;17579;42.690;2.586;2023-02-28T17:07:47;4.20;;;3.72;;
30872;SDS011;17579;42.690;2.586;2023-02-28T17:12:42;5.75;;;4.63;;
30872;SDS011;17579;42.690;2.586;2023-02-28T17:15:09;4.97;;;4.22;;
30872;SDS011;17579;42.690;2.586;2023-02-28T17:17:36;4.72;;;4.22;;
30872;SDS011;17579;42.690;2.586;2023-02-28T17:20:02;4.60;;;4.20;;